Waynesville, OH (45068)

8:55 AM EST on January 27, 2015 (GMT -0500)
Waynesville - Near North Water Tower | Change Station
CLOSE
Current Station
Personal Weather Station
Location: Waynesville, OH
Elevation: 1014 ft
Nearby Weather Stations

Elev 1014 ft 39.56 °N, 84.10 °W | Updated 13 seconds ago

Clear
Clear
14.2 °F
Feels Like 14 °F
N
0.0
Wind Variable Wind from ENE
Gusts 1.0 mph

Today
High -- | Low -- °F
--% Chance of Precip.
Yesterday
High -- | Low -- °F
Precip. -- in
7:48 AM 5:50 PM
First Quarter, 54% visible
Pressure 30.04 in
Visibility 6.0 miles
Clouds Clear
Windchill 14 °F
Dew Point 12 °F
Humidity 91%
Rainfall 0.00 in
Snow Depth Not available.
UV 0 out of 12
Pollen .10 out of 12
Air Quality Not available.
Flu Activity Not available.
METAR KMGY 271253Z AUTO 06006KT 6SM BR CLR M11/M13 A3000 RMK AO2 SLP173 T11111128

More Conditions Fewer Conditions

Pressure 30.04 in
Visibility 6.0 miles
Clouds Clear
Windchill 14 °F
Dew Point 12 °F
Humidity 91%
Rainfall 0.00 in
Snow Depth Not available.
UV 0 out of 12
Pollen .10 out of 12
Air Quality Not available.
Flu Activity Not available.
METAR KMGY 271253Z AUTO 06006KT 6SM BR CLR M11/M13 A3000 RMK AO2 SLP173 T11111128

More Conditions Fewer Conditions

10-Day Weather Forecast

Almanac

Astronomy

Jan. 27, 2015 Rise Set
Actual Time
Civil Twilight
Nautical Twilight
Astronomical Twilight
Moon
Length of Visible Light
Length of Day
Tomorrow will be .
, % of the Moon is Illuminated

Today's Extremes

State Highs State Lows

Community

WunderPhotos

Upload Photos

1,790,628 photos uploaded!

WunderBlogs® & News

Nearby

Air Quality

  Air Quality AQ Index Pollutant
Not available.

Snow Depth

Station Depth Elevation

Earthquake Activity

City Distance Mag. Time & Date
Minimum magnitude displayed is 2.5.

Coastal Water Temperatures

Place Temperature

Nearby Weather Stations